createdAt,value
2022-10-31T00:00:31.657Z,17.73
2022-10-31T00:03:00.996Z,17.66
2022-10-31T00:05:30.907Z,17.59
2022-10-31T00:08:05.552Z,17.61
2022-10-31T00:10:33.830Z,17.56
2022-10-31T00:13:02.011Z,17.45
2022-10-31T00:15:31.303Z,17.52
2022-10-31T00:18:07.180Z,17.38
2022-10-31T00:20:37.183Z,17.36
2022-10-31T00:23:07.021Z,17.36
2022-10-31T00:25:40.794Z,17.41
2022-10-31T00:28:12.182Z,17.39
2022-10-31T00:30:40.692Z,17.23
2022-10-31T00:33:08.808Z,17.31
2022-10-31T00:35:38.020Z,17.35
2022-10-31T00:38:06.138Z,17.38
2022-10-31T00:40:35.085Z,17.38
2022-10-31T00:43:03.442Z,17.32
2022-10-31T00:45:33.821Z,17.28
2022-10-31T00:48:04.463Z,17.28
2022-10-31T00:50:34.554Z,17.14
2022-10-31T00:53:04.597Z,17.25
2022-10-31T00:55:33.551Z,17.20
2022-10-31T00:58:02.842Z,17.18
2022-10-31T01:00:34.472Z,17.26
2022-10-31T01:03:18.964Z,17.23
2022-10-31T01:05:48.093Z,17.22
2022-10-31T01:08:17.893Z,17.25
2022-10-31T01:10:45.917Z,17.26
2022-10-31T01:13:15.565Z,17.19
2022-10-31T01:15:57.161Z,17.24
2022-10-31T01:18:27.880Z,17.22
2022-10-31T01:21:16.558Z,17.26
2022-10-31T01:23:44.963Z,17.09
2022-10-31T01:26:30.944Z,17.19
2022-10-31T01:29:09.435Z,17.15
2022-10-31T01:31:41.582Z,17.11
2022-10-31T01:34:16.782Z,17.11
2022-10-31T01:36:52.133Z,17.07
2022-10-31T01:39:20.992Z,16.98
2022-10-31T01:41:52.640Z,16.96
2022-10-31T01:44:24.562Z,16.96
2022-10-31T01:47:06.146Z,16.91
2022-10-31T01:49:45.043Z,16.87
2022-10-31T01:52:48.253Z,16.86
2022-10-31T01:55:30.447Z,16.75
2022-10-31T01:58:06.097Z,16.71
2022-10-31T02:00:44.094Z,16.85
2022-10-31T03:57:04.846Z,16.25
2022-10-31T03:59:43.116Z,16.31
2022-10-31T04:02:23.691Z,16.27
2022-10-31T04:04:54.115Z,16.31
2022-10-31T04:07:28.309Z,16.27
2022-10-31T04:10:03.831Z,16.22
2022-10-31T04:12:36.081Z,16.22
2022-10-31T04:15:20.510Z,16.17
2022-10-31T04:17:51.715Z,16.08
2022-10-31T04:20:31.653Z,16.14
2022-10-31T04:23:02.084Z,15.96
2022-10-31T04:25:30.313Z,16.01
2022-10-31T04:28:00.939Z,15.92
2022-10-31T04:30:32.185Z,15.92
2022-10-31T04:33:02.364Z,15.98
2022-10-31T04:35:32.386Z,15.89
2022-10-31T04:38:00.622Z,15.94
2022-10-31T04:40:29.416Z,15.99
2022-10-31T04:43:34.954Z,15.87
2022-10-31T04:46:06.345Z,16.03
2022-10-31T04:48:39.470Z,16.05
2022-10-31T04:51:09.106Z,15.98
2022-10-31T04:53:37.622Z,15.99
2022-10-31T04:56:44.354Z,16.02
2022-10-31T04:59:21.453Z,15.93
2022-10-31T05:01:54.989Z,15.87
2022-10-31T05:04:35.824Z,15.83
2022-10-31T05:07:07.165Z,15.85
2022-10-31T05:09:35.799Z,15.81
2022-10-31T05:12:06.499Z,15.79
2022-10-31T05:15:13.654Z,15.73
2022-10-31T05:18:00.907Z,15.62
2022-10-31T05:21:01.656Z,15.70
2022-10-31T05:23:36.330Z,15.71
2022-10-31T05:26:07.168Z,15.68
2022-10-31T05:28:36.379Z,15.72
2022-10-31T05:31:07.363Z,15.81
2022-10-31T05:33:37.776Z,15.80
2022-10-31T05:36:12.550Z,15.84
2022-10-31T05:38:50.672Z,15.89
2022-10-31T05:41:27.187Z,15.87
2022-10-31T05:44:06.175Z,15.87
2022-10-31T05:46:42.637Z,15.80
2022-10-31T05:49:27.450Z,15.82
2022-10-31T05:52:14.799Z,15.69
2022-10-31T05:54:51.665Z,15.69
2022-10-31T05:57:19.910Z,15.64
2022-10-31T05:59:54.785Z,15.58
2022-10-31T06:02:24.552Z,15.53
2022-10-31T06:05:14.776Z,15.53
2022-10-31T06:07:44.173Z,15.35
2022-10-31T06:10:13.287Z,15.45
2022-10-31T07:54:31.267Z,16.59
2022-10-31T07:57:00.074Z,16.62
2022-10-31T07:59:33.468Z,16.81
2022-10-31T08:02:05.395Z,16.87
2022-10-31T08:04:37.048Z,16.97
2022-10-31T08:07:26.368Z,17.02
2022-10-31T08:10:03.668Z,17.10
2022-10-31T08:12:33.721Z,17.14
2022-10-31T08:15:03.206Z,17.20
2022-10-31T08:17:37.514Z,17.25
2022-10-31T08:20:08.273Z,17.35
2022-10-31T08:22:54.598Z,17.35
2022-10-31T08:25:24.471Z,17.52
2022-10-31T08:27:57.139Z,17.48
2022-10-31T08:30:33.956Z,17.67
2022-10-31T08:33:39.143Z,17.71
2022-10-31T08:36:26.429Z,17.64
2022-10-31T08:39:01.788Z,17.87
2022-10-31T08:41:32.816Z,17.87
2022-10-31T08:44:04.670Z,17.97
2022-10-31T08:46:34.096Z,17.94
2022-10-31T08:49:03.588Z,18.02
2022-10-31T08:51:32.580Z,18.11
2022-10-31T08:54:01.322Z,18.17
2022-10-31T08:56:40.211Z,18.34
2022-10-31T08:59:27.640Z,18.34
2022-10-31T09:02:20.015Z,18.48
2022-10-31T09:04:56.508Z,18.54
2022-10-31T09:07:34.412Z,18.64
2022-10-31T09:10:03.176Z,18.64
2022-10-31T09:12:34.719Z,18.46
2022-10-31T09:15:43.676Z,18.73
2022-10-31T09:18:32.984Z,18.74
2022-10-31T09:21:03.266Z,18.95
2022-10-31T09:23:33.502Z,18.99
2022-10-31T09:26:03.833Z,19.01
2022-10-31T09:28:39.110Z,19.10
2022-10-31T09:31:13.193Z,19.11
2022-10-31T09:33:56.995Z,19.15
2022-10-31T09:36:39.586Z,19.17
2022-10-31T09:39:21.309Z,19.21
2022-10-31T09:43:03.030Z,19.27
2022-10-31T09:45:52.009Z,19.36
2022-10-31T09:49:26.511Z,19.41
2022-10-31T09:52:39.611Z,19.41
2022-10-31T09:55:41.910Z,19.49
2022-10-31T09:58:34.184Z,19.50
2022-10-31T10:01:06.519Z,19.54
2022-10-31T10:03:42.736Z,19.58
2022-10-31T10:06:38.529Z,19.62
2022-10-31T10:09:29.467Z,19.57
2022-10-31T10:13:04.909Z,19.71
2022-10-31T10:15:56.179Z,19.72
2022-10-31T10:18:48.876Z,19.76
2022-10-31T10:21:46.006Z,19.79
2022-10-31T10:24:29.697Z,19.82
2022-10-31T10:27:07.855Z,19.83
2022-10-31T10:30:00.581Z,19.92
2022-10-31T10:32:46.564Z,19.95
2022-10-31T10:35:28.997Z,20.01
2022-10-31T10:38:20.488Z,20.08
2022-10-31T10:40:49.446Z,20.07
2022-10-31T10:43:24.175Z,20.19
2022-10-31T10:46:46.531Z,20.23
2022-10-31T10:49:47.608Z,20.28
2022-10-31T10:53:23.440Z,20.28
2022-10-31T10:56:07.827Z,20.33
2022-10-31T10:58:40.202Z,20.37
2022-10-31T11:03:45.944Z,20.40
2022-10-31T11:06:27.037Z,20.57
2022-10-31T11:08:57.649Z,20.63
2022-10-31T11:11:32.388Z,20.68
2022-10-31T11:14:15.587Z,20.83
2022-10-31T11:16:49.160Z,20.78
2022-10-31T11:19:18.556Z,20.95
2022-10-31T11:21:53.785Z,20.96
2022-10-31T11:24:32.435Z,21.10
2022-10-31T11:27:25.306Z,21.15
2022-10-31T11:29:59.691Z,21.17
2022-10-31T11:32:31.152Z,21.25
2022-10-31T11:35:03.537Z,21.27
2022-10-31T11:37:36.664Z,21.31
2022-10-31T11:40:08.450Z,21.43
2022-10-31T11:42:43.659Z,21.45
2022-10-31T11:49:55.753Z,21.50
2022-10-31T11:52:32.632Z,21.45
2022-10-31T12:38:19.712Z,21.79
2022-10-31T12:41:39.039Z,21.96
2022-10-31T12:44:33.263Z,21.94
2022-10-31T12:47:40.013Z,22.00
2022-10-31T12:50:36.387Z,22.06
2022-10-31T12:53:10.356Z,22.11
2022-10-31T12:56:22.594Z,22.20
2022-10-31T12:59:30.154Z,22.18
2022-10-31T13:02:37.921Z,22.17
2022-10-31T13:05:14.415Z,22.16
2022-10-31T13:07:46.538Z,22.22
2022-10-31T13:10:18.243Z,22.23
2022-10-31T13:12:53.360Z,22.22
2022-10-31T13:15:31.103Z,22.20
2022-10-31T13:18:08.550Z,22.23
2022-10-31T13:20:45.726Z,22.28
2022-10-31T13:23:51.895Z,22.30
2022-10-31T13:26:48.826Z,22.34
2022-10-31T13:29:31.622Z,22.47
2022-10-31T13:32:06.623Z,22.56
2022-10-31T13:35:01.038Z,22.64
2022-10-31T13:37:54.631Z,22.57
2022-10-31T13:40:40.648Z,22.71
2022-10-31T13:43:58.779Z,22.78
2022-10-31T13:46:39.577Z,22.71
2022-10-31T13:49:29.607Z,22.75
2022-10-31T13:52:28.052Z,22.63
2022-10-31T13:57:46.188Z,22.62
2022-10-31T14:00:27.975Z,22.59
2022-10-31T14:03:00.370Z,22.62
2022-10-31T14:05:38.525Z,22.56
2022-10-31T14:08:19.827Z,22.53
2022-10-31T14:10:57.508Z,22.44
2022-10-31T14:16:18.102Z,22.40
2022-10-31T14:18:52.289Z,22.35
2022-10-31T14:21:31.476Z,22.27
2022-10-31T14:24:00.734Z,22.16
2022-10-31T14:26:35.757Z,22.21
2022-10-31T14:29:16.047Z,22.17
2022-10-31T14:31:53.211Z,22.02
2022-10-31T14:34:45.124Z,22.04
2022-10-31T14:38:35.373Z,21.95
2022-10-31T14:41:17.779Z,21.93
2022-10-31T14:44:01.183Z,21.91
2022-10-31T14:46:48.694Z,21.90
2022-10-31T14:49:45.977Z,21.86
2022-10-31T14:52:18.224Z,21.84
2022-10-31T14:54:54.822Z,21.87
2022-10-31T14:57:32.053Z,21.84
2022-10-31T15:00:18.160Z,21.86
2022-10-31T15:03:29.166Z,21.82
2022-10-31T15:06:22.647Z,21.81
2022-10-31T15:08:57.870Z,21.89
2022-10-31T15:11:28.812Z,21.84
2022-10-31T15:14:00.774Z,21.82
2022-10-31T15:16:36.353Z,21.90
2022-10-31T15:19:22.343Z,21.96
2022-10-31T15:21:55.580Z,21.92
2022-10-31T15:24:36.613Z,21.96
2022-10-31T15:27:06.212Z,21.82
2022-10-31T15:29:36.405Z,21.72
2022-10-31T15:32:27.241Z,21.79
2022-10-31T15:34:57.915Z,21.82
2022-10-31T15:37:28.062Z,21.79
2022-10-31T15:39:56.637Z,21.85
2022-10-31T15:42:31.038Z,21.89
2022-10-31T15:45:12.370Z,21.86
2022-10-31T15:47:46.417Z,21.73
2022-10-31T15:50:42.376Z,21.80
2022-10-31T15:53:48.047Z,21.75
2022-10-31T15:56:27.265Z,21.72
2022-10-31T15:58:58.385Z,21.71
2022-10-31T16:01:35.374Z,21.67
2022-10-31T16:04:13.325Z,21.70
2022-10-31T16:06:41.438Z,21.59
2022-10-31T16:09:25.825Z,21.63
2022-10-31T16:11:54.164Z,21.56
2022-10-31T16:14:28.407Z,21.59
2022-10-31T16:17:00.233Z,21.56
2022-10-31T16:19:47.096Z,21.52
2022-10-31T16:22:25.596Z,21.45
2022-10-31T16:25:15.329Z,21.41
2022-10-31T16:27:54.487Z,21.34
2022-10-31T16:30:47.897Z,21.29
2022-10-31T16:33:25.084Z,21.21
2022-10-31T16:36:04.252Z,21.05
2022-10-31T16:38:38.282Z,21.10
2022-10-31T16:41:08.243Z,21.06
2022-10-31T16:43:36.824Z,21.05
2022-10-31T16:46:05.542Z,21.11
2022-10-31T16:48:36.582Z,21.09
2022-10-31T16:51:04.737Z,21.03
2022-10-31T16:53:32.773Z,20.96
2022-10-31T16:56:05.053Z,21.05
2022-10-31T16:58:35.939Z,21.04
2022-10-31T17:01:08.188Z,21.04
2022-10-31T17:03:36.948Z,21.03
2022-10-31T17:06:06.207Z,21.02
2022-10-31T17:08:34.254Z,20.96
2022-10-31T17:11:02.933Z,20.89
2022-10-31T17:13:34.735Z,20.94
2022-10-31T17:16:04.316Z,20.92
2022-10-31T17:18:33.523Z,20.85
2022-10-31T17:21:08.740Z,20.89
2022-10-31T17:23:38.499Z,20.83
2022-10-31T17:26:08.784Z,20.81
2022-10-31T17:28:38.057Z,20.74
2022-10-31T17:31:07.161Z,20.70
2022-10-31T17:33:35.965Z,20.72
2022-10-31T17:36:04.667Z,20.68
2022-10-31T17:38:32.636Z,20.56
2022-10-31T17:41:11.248Z,20.64
2022-10-31T17:43:42.651Z,20.52
2022-10-31T17:46:10.568Z,20.53
2022-10-31T17:48:39.332Z,20.49
2022-10-31T17:51:07.835Z,20.42
2022-10-31T17:53:37.149Z,20.31
2022-10-31T17:56:10.076Z,20.45
2022-10-31T17:58:39.234Z,20.44
2022-10-31T18:01:13.250Z,20.44
2022-10-31T18:03:42.332Z,20.41
2022-10-31T18:06:14.417Z,20.41
2022-10-31T18:08:43.313Z,20.31
2022-10-31T18:11:19.976Z,20.15
2022-10-31T18:13:48.148Z,20.08
2022-10-31T18:16:19.262Z,20.07
2022-10-31T18:18:56.403Z,20.13
2022-10-31T18:21:24.370Z,20.08
2022-10-31T18:23:58.384Z,20.08
2022-10-31T18:26:28.069Z,19.96
2022-10-31T18:28:56.113Z,19.96
2022-10-31T18:31:24.950Z,19.98
2022-10-31T18:33:55.408Z,19.93
2022-10-31T18:36:25.703Z,19.92
2022-10-31T18:38:53.927Z,19.93
2022-10-31T18:41:22.428Z,19.94
2022-10-31T18:43:50.709Z,19.93
2022-10-31T18:46:18.851Z,19.89
2022-10-31T18:48:47.217Z,19.87
2022-10-31T18:51:18.328Z,19.84
2022-10-31T18:53:58.987Z,19.92
2022-10-31T18:56:31.615Z,19.88
2022-10-31T18:59:03.048Z,19.87
2022-10-31T19:01:32.192Z,19.79
2022-10-31T19:04:00.739Z,19.79
2022-10-31T19:06:30.874Z,19.77
2022-10-31T19:09:26.724Z,19.77
2022-10-31T19:11:54.989Z,19.76
2022-10-31T19:14:23.272Z,19.80
2022-10-31T19:16:52.669Z,19.76
2022-10-31T19:19:21.005Z,19.73
2022-10-31T19:21:48.948Z,19.77
2022-10-31T19:24:18.512Z,19.76
2022-10-31T19:26:47.811Z,19.75
2022-10-31T19:29:16.599Z,19.75
2022-10-31T19:31:46.448Z,19.74
2022-10-31T19:34:17.749Z,19.71
2022-10-31T19:36:45.773Z,19.68
2022-10-31T19:39:14.118Z,19.58
2022-10-31T19:41:42.289Z,19.56
2022-10-31T19:44:13.264Z,19.51
2022-10-31T19:46:53.359Z,19.55
2022-10-31T19:49:24.307Z,19.49
2022-10-31T19:51:52.727Z,19.43
2022-10-31T19:54:20.734Z,19.42
2022-10-31T19:56:48.672Z,19.28
2022-10-31T19:59:19.938Z,19.37
2022-10-31T20:01:48.213Z,19.13
2022-10-31T20:04:16.752Z,19.27
2022-10-31T20:06:45.059Z,19.25
2022-10-31T20:09:14.660Z,19.28
2022-10-31T20:11:45.599Z,19.23
2022-10-31T20:14:16.572Z,19.25
2022-10-31T20:16:45.906Z,19.23
2022-10-31T20:19:13.939Z,19.14
2022-10-31T20:21:42.225Z,19.22
2022-10-31T20:24:11.260Z,19.20
2022-10-31T20:26:41.130Z,19.14
2022-10-31T20:29:15.931Z,19.11
2022-10-31T20:31:45.894Z,19.16
2022-10-31T20:34:15.397Z,19.19
2022-10-31T20:36:43.392Z,19.12
2022-10-31T20:39:11.610Z,19.15
2022-10-31T20:41:39.660Z,19.18
2022-10-31T20:44:07.762Z,19.17
2022-10-31T20:46:35.910Z,19.09
2022-10-31T20:49:04.421Z,19.06
2022-10-31T20:51:32.926Z,19.11
2022-10-31T20:54:01.541Z,19.11
2022-10-31T20:56:30.018Z,19.09
2022-10-31T20:58:58.331Z,19.07
2022-10-31T21:01:30.405Z,19.12
2022-10-31T21:03:59.120Z,19.12
2022-10-31T21:06:28.429Z,19.05
2022-10-31T21:08:57.642Z,19.03
2022-10-31T21:11:28.415Z,18.99
2022-10-31T21:13:57.213Z,18.96
2022-10-31T21:16:31.350Z,18.99
2022-10-31T21:19:02.015Z,18.98
2022-10-31T21:21:37.074Z,18.88
2022-10-31T21:24:15.217Z,18.90
2022-10-31T21:26:50.566Z,18.91
2022-10-31T21:29:20.295Z,18.84
2022-10-31T21:31:51.226Z,18.86
2022-10-31T21:34:19.562Z,18.83
2022-10-31T21:36:47.756Z,18.78
2022-10-31T21:39:15.838Z,18.84
2022-10-31T21:41:44.595Z,18.71
2022-10-31T21:44:13.255Z,18.81
2022-10-31T21:46:41.543Z,18.81
2022-10-31T21:49:11.407Z,18.84
2022-10-31T21:51:40.882Z,18.75
2022-10-31T21:54:28.099Z,18.88
2022-10-31T21:56:58.133Z,18.81
2022-10-31T21:59:26.789Z,18.87
2022-10-31T22:01:57.161Z,18.85
2022-10-31T22:04:25.564Z,18.72
2022-10-31T22:06:54.380Z,18.76
2022-10-31T22:09:23.862Z,18.73
2022-10-31T22:11:52.314Z,18.61
2022-10-31T22:14:20.853Z,18.68
2022-10-31T22:16:49.024Z,18.60
2022-10-31T22:19:17.286Z,18.66
2022-10-31T22:21:49.223Z,18.60
2022-10-31T22:24:18.875Z,18.54
2022-10-31T22:26:47.217Z,18.61
2022-10-31T22:29:19.882Z,18.61
2022-10-31T22:31:57.263Z,18.56
2022-10-31T22:34:28.902Z,18.52
2022-10-31T22:36:57.212Z,18.53
2022-10-31T22:39:25.680Z,18.56
2022-10-31T22:41:55.117Z,18.55
2022-10-31T22:44:23.806Z,18.56
2022-10-31T22:46:51.756Z,18.59
2022-10-31T22:49:19.831Z,18.54
2022-10-31T22:51:52.246Z,18.62
2022-10-31T22:54:22.793Z,18.61
2022-10-31T22:56:51.132Z,18.56
2022-10-31T22:59:19.237Z,18.59
2022-10-31T23:01:47.565Z,18.62
2022-10-31T23:04:18.649Z,18.46
2022-10-31T23:06:47.637Z,18.52
2022-10-31T23:09:17.056Z,18.58
2022-10-31T23:11:48.326Z,18.56
2022-10-31T23:14:21.157Z,18.56
2022-10-31T23:16:53.646Z,18.58
2022-10-31T23:19:30.510Z,18.56
2022-10-31T23:22:03.934Z,18.55
2022-10-31T23:24:37.831Z,18.57
2022-10-31T23:27:14.659Z,18.48
2022-10-31T23:29:46.937Z,18.53
2022-10-31T23:32:25.441Z,18.49
2022-10-31T23:35:03.616Z,18.50
2022-10-31T23:37:34.933Z,18.46
2022-10-31T23:40:04.520Z,18.47
2022-10-31T23:42:32.289Z,18.46
2022-10-31T23:45:00.151Z,18.50
2022-10-31T23:47:28.209Z,18.50
2022-10-31T23:49:59.078Z,18.42
2022-10-31T23:52:27.730Z,18.37
2022-10-31T23:54:55.705Z,18.45
2022-10-31T23:57:23.716Z,18.42
2022-10-31T23:59:52.005Z,18.41
